This is the latest recevied weather packets stored in our database for station/object KQ4UPF. If no packets are shown the sender has not sent any weather packets the latest 10 day(s).
| Time | Temp. | Humidity | Pressure | Rain* | Wind** | Luminosity | Snow |
|---|---|---|---|---|---|---|---|
| 1777688717 | 12.78° C | 93% | 1015.8 hPa | 0 mm | - | 0 W/m² | - |
| 1777688415 | 12.78° C | 93% | 1015.6 hPa | 0 mm | - | 0 W/m² | - |
| 1777688112 | 12.78° C | 93% | 1015.4 hPa | 0 mm | - | 0 W/m² | - |
| 1777687808 | 12.78° C | 92% | 1015.3 hPa | 0 mm | - | 0 W/m² | - |
| 1777687506 | 13.33° C | 92% | 1015.3 hPa | 0 mm | - | 0 W/m² | - |
| 1777687203 | 13.33° C | 92% | 1015.2 hPa | 0 mm | - | 0 W/m² | - |
| 1777686901 | 12.78° C | 92% | 1015.2 hPa | 0 mm | - | 0 W/m² | - |
| 1777686597 | 12.78° C | 91% | 1015.1 hPa | 0 mm | - | 0 W/m² | - |
| 1777686294 | 12.78° C | 92% | 1015.2 hPa | 0 mm | - | 0 W/m² | - |
| 1777685990 | 12.78° C | 91% | 1015.2 hPa | 0 mm | - | 0 W/m² | - |
| 1777685686 | 12.78° C | 91% | 1015.2 hPa | 0 mm | - | 0 W/m² | - |
| 1777685383 | 12.78° C | 90% | 1015.2 hPa | 0 mm | - | 0 W/m² | - |
| 1777685080 | 13.33° C | 91% | 1015.1 hPa | 0 mm | - | 0 W/m² | - |
| 1777684778 | 13.33° C | 90% | 1015.2 hPa | 0 mm | - | 0 W/m² | - |
| 1777684473 | 13.33° C | 89% | 1015.1 hPa | 0 mm | - | 0 W/m² | - |
| 1777684171 | 13.33° C | 89% | 1015.2 hPa | 0 mm | - | 0 W/m² | - |
| 1777683867 | 13.33° C | 89% | 1014.9 hPa | 0 mm | - | 0 W/m² | - |
| 1777683564 | 13.89° C | 87% | 1014.9 hPa | 0 mm | - | 0 W/m² | - |
| 1777683262 | 13.89° C | 84% | 1015.1 hPa | 0 mm | - | 0 W/m² | - |
| 1777682960 | 13.89° C | 86% | 1014.7 hPa | 0 mm | - | 0 W/m² | - |
| 1777682655 | 13.89° C | 86% | 1014.5 hPa | 0 mm | - | 0 W/m² | - |
| 1777682353 | 13.89° C | 85% | 1014.5 hPa | 0 mm | - | 0 W/m² | - |
| 1777682050 | 14.44° C | 83% | 1014.5 hPa | 0 mm | - | 1 W/m² | - |
| 1777681746 | 14.44° C | 85% | 1014.4 hPa | 0 mm | - | 1 W/m² | - |
| 1777681444 | 14.44° C | 83% | 1014.4 hPa | 0 mm | - | 2 W/m² | - |
* Rain latest hour (hover to see other rain measurements)
** Current wind speed in m/s (hover to see current wind gust speed)